sensor_id;sensor_type;location;lat;lon;timestamp;P1;durP1;ratioP1;P2;durP2;ratioP2
18532;SDS011;9396;51.510;11.934;2023-07-29T00:00:38;1.97;;;1.00;;
18532;SDS011;9396;51.510;11.934;2023-07-29T00:03:04;2.10;;;1.10;;
18532;SDS011;9396;51.510;11.934;2023-07-29T00:05:31;2.63;;;1.20;;
18532;SDS011;9396;51.510;11.934;2023-07-29T00:07:58;1.87;;;1.20;;
18532;SDS011;9396;51.510;11.934;2023-07-29T00:10:25;2.60;;;1.23;;
18532;SDS011;9396;51.510;11.934;2023-07-29T00:12:53;3.20;;;1.20;;
18532;SDS011;9396;51.510;11.934;2023-07-29T00:15:20;1.77;;;1.40;;
18532;SDS011;9396;51.510;11.934;2023-07-29T00:17:46;1.10;;;1.00;;
18532;SDS011;9396;51.510;11.934;2023-07-29T00:20:13;2.10;;;1.30;;
18532;SDS011;9396;51.510;11.934;2023-07-29T00:22:40;1.20;;;1.10;;
18532;SDS011;9396;51.510;11.934;2023-07-29T00:25:07;1.60;;;1.23;;
18532;SDS011;9396;51.510;11.934;2023-07-29T00:27:34;1.33;;;1.20;;
18532;SDS011;9396;51.510;11.934;2023-07-29T00:30:02;1.40;;;1.30;;
18532;SDS011;9396;51.510;11.934;2023-07-29T00:32:29;1.57;;;1.10;;
18532;SDS011;9396;51.510;11.934;2023-07-29T00:34:57;1.70;;;1.13;;
18532;SDS011;9396;51.510;11.934;2023-07-29T00:37:25;1.20;;;1.10;;
18532;SDS011;9396;51.510;11.934;2023-07-29T00:39:52;1.07;;;0.97;;
18532;SDS011;9396;51.510;11.934;2023-07-29T00:42:19;1.20;;;1.00;;
18532;SDS011;9396;51.510;11.934;2023-07-29T00:44:45;1.33;;;1.17;;
18532;SDS011;9396;51.510;11.934;2023-07-29T00:47:13;1.47;;;1.13;;
18532;SDS011;9396;51.510;11.934;2023-07-29T00:49:42;2.60;;;1.33;;
18532;SDS011;9396;51.510;11.934;2023-07-29T00:52:09;3.33;;;1.00;;
18532;SDS011;9396;51.510;11.934;2023-07-29T00:54:37;1.40;;;1.30;;
18532;SDS011;9396;51.510;11.934;2023-07-29T00:57:04;2.70;;;1.20;;
18532;SDS011;9396;51.510;11.934;2023-07-29T00:59:31;1.10;;;1.00;;
18532;SDS011;9396;51.510;11.934;2023-07-29T01:01:58;3.53;;;1.20;;
18532;SDS011;9396;51.510;11.934;2023-07-29T01:04:27;1.37;;;1.00;;
18532;SDS011;9396;51.510;11.934;2023-07-29T01:07:03;2.30;;;1.33;;
18532;SDS011;9396;51.510;11.934;2023-07-29T01:09:37;2.10;;;1.00;;
18532;SDS011;9396;51.510;11.934;2023-07-29T01:12:11;1.10;;;1.00;;
18532;SDS011;9396;51.510;11.934;2023-07-29T01:14:49;1.17;;;1.07;;
18532;SDS011;9396;51.510;11.934;2023-07-29T01:17:26;1.13;;;1.00;;
18532;SDS011;9396;51.510;11.934;2023-07-29T01:20:01;1.20;;;1.10;;
18532;SDS011;9396;51.510;11.934;2023-07-29T01:22:31;1.00;;;0.90;;
18532;SDS011;9396;51.510;11.934;2023-07-29T01:25:01;1.60;;;1.07;;
18532;SDS011;9396;51.510;11.934;2023-07-29T01:27:27;1.03;;;0.93;;
18532;SDS011;9396;51.510;11.934;2023-07-29T01:29:54;1.10;;;1.00;;
18532;SDS011;9396;51.510;11.934;2023-07-29T01:32:23;1.93;;;1.00;;
18532;SDS011;9396;51.510;11.934;2023-07-29T01:34:56;1.20;;;1.10;;
18532;SDS011;9396;51.510;11.934;2023-07-29T01:37:30;1.47;;;0.93;;
18532;SDS011;9396;51.510;11.934;2023-07-29T01:40:00;1.10;;;0.93;;
18532;SDS011;9396;51.510;11.934;2023-07-29T01:42:28;1.03;;;0.93;;
18532;SDS011;9396;51.510;11.934;2023-07-29T01:44:56;1.30;;;0.90;;
18532;SDS011;9396;51.510;11.934;2023-07-29T01:47:23;1.93;;;1.00;;
18532;SDS011;9396;51.510;11.934;2023-07-29T01:49:49;0.97;;;0.87;;
18532;SDS011;9396;51.510;11.934;2023-07-29T01:52:16;1.67;;;1.00;;
18532;SDS011;9396;51.510;11.934;2023-07-29T01:54:43;1.60;;;1.10;;
18532;SDS011;9396;51.510;11.934;2023-07-29T01:57:11;1.73;;;1.13;;
18532;SDS011;9396;51.510;11.934;2023-07-29T01:59:37;2.30;;;1.10;;
18532;SDS011;9396;51.510;11.934;2023-07-29T02:02:04;3.00;;;1.10;;
18532;SDS011;9396;51.510;11.934;2023-07-29T02:04:31;1.73;;;1.27;;
18532;SDS011;9396;51.510;11.934;2023-07-29T02:06:57;1.27;;;1.17;;
18532;SDS011;9396;51.510;11.934;2023-07-29T02:09:24;1.10;;;1.00;;
18532;SDS011;9396;51.510;11.934;2023-07-29T02:11:52;3.27;;;1.03;;
18532;SDS011;9396;51.510;11.934;2023-07-29T02:14:20;1.10;;;1.00;;
18532;SDS011;9396;51.510;11.934;2023-07-29T02:16:47;1.13;;;0.93;;
18532;SDS011;9396;51.510;11.934;2023-07-29T02:19:14;3.20;;;1.10;;
18532;SDS011;9396;51.510;11.934;2023-07-29T02:21:41;5.07;;;1.20;;
18532;SDS011;9396;51.510;11.934;2023-07-29T02:24:07;1.53;;;1.10;;
18532;SDS011;9396;51.510;11.934;2023-07-29T02:26:34;1.43;;;1.07;;
18532;SDS011;9396;51.510;11.934;2023-07-29T02:29:00;1.87;;;1.13;;
18532;SDS011;9396;51.510;11.934;2023-07-29T02:31:28;1.23;;;1.13;;
18532;SDS011;9396;51.510;11.934;2023-07-29T02:33:55;2.63;;;1.30;;
18532;SDS011;9396;51.510;11.934;2023-07-29T02:36:22;1.60;;;1.20;;
18532;SDS011;9396;51.510;11.934;2023-07-29T02:38:48;1.37;;;1.20;;
18532;SDS011;9396;51.510;11.934;2023-07-29T02:41:15;1.97;;;1.20;;
18532;SDS011;9396;51.510;11.934;2023-07-29T02:43:42;2.23;;;1.27;;
18532;SDS011;9396;51.510;11.934;2023-07-29T02:46:08;1.53;;;1.10;;
18532;SDS011;9396;51.510;11.934;2023-07-29T02:48:37;3.57;;;1.13;;
18532;SDS011;9396;51.510;11.934;2023-07-29T02:51:03;2.97;;;1.40;;
18532;SDS011;9396;51.510;11.934;2023-07-29T02:53:30;1.63;;;1.07;;
18532;SDS011;9396;51.510;11.934;2023-07-29T02:55:57;2.17;;;1.20;;
18532;SDS011;9396;51.510;11.934;2023-07-29T02:58:23;2.50;;;1.23;;
18532;SDS011;9396;51.510;11.934;2023-07-29T03:00:51;1.80;;;1.17;;
18532;SDS011;9396;51.510;11.934;2023-07-29T03:03:18;1.60;;;1.17;;
18532;SDS011;9396;51.510;11.934;2023-07-29T03:05:46;1.40;;;1.30;;
18532;SDS011;9396;51.510;11.934;2023-07-29T03:08:13;3.70;;;1.30;;
18532;SDS011;9396;51.510;11.934;2023-07-29T03:10:39;2.70;;;1.23;;
18532;SDS011;9396;51.510;11.934;2023-07-29T03:13:07;2.33;;;1.20;;
18532;SDS011;9396;51.510;11.934;2023-07-29T03:15:33;1.30;;;1.10;;
18532;SDS011;9396;51.510;11.934;2023-07-29T03:18:00;1.50;;;1.20;;
18532;SDS011;9396;51.510;11.934;2023-07-29T03:20:27;1.67;;;1.23;;
18532;SDS011;9396;51.510;11.934;2023-07-29T03:22:55;1.77;;;1.10;;
18532;SDS011;9396;51.510;11.934;2023-07-29T03:25:21;1.27;;;1.00;;
18532;SDS011;9396;51.510;11.934;2023-07-29T03:27:48;1.20;;;1.10;;
18532;SDS011;9396;51.510;11.934;2023-07-29T03:30:18;1.10;;;1.00;;
18532;SDS011;9396;51.510;11.934;2023-07-29T03:32:46;1.53;;;1.30;;
18532;SDS011;9396;51.510;11.934;2023-07-29T03:35:13;1.73;;;1.10;;
18532;SDS011;9396;51.510;11.934;2023-07-29T03:37:40;1.33;;;1.10;;
18532;SDS011;9396;51.510;11.934;2023-07-29T03:40:09;1.47;;;1.10;;
18532;SDS011;9396;51.510;11.934;2023-07-29T03:42:36;2.43;;;1.37;;
18532;SDS011;9396;51.510;11.934;2023-07-29T03:45:03;1.57;;;1.20;;
18532;SDS011;9396;51.510;11.934;2023-07-29T03:47:30;2.20;;;1.23;;
18532;SDS011;9396;51.510;11.934;2023-07-29T03:49:57;2.10;;;1.20;;
18532;SDS011;9396;51.510;11.934;2023-07-29T03:52:24;1.40;;;1.30;;
18532;SDS011;9396;51.510;11.934;2023-07-29T03:54:50;1.80;;;1.20;;
18532;SDS011;9396;51.510;11.934;2023-07-29T03:57:18;2.43;;;1.37;;
18532;SDS011;9396;51.510;11.934;2023-07-29T03:59:45;1.73;;;1.20;;
18532;SDS011;9396;51.510;11.934;2023-07-29T04:02:11;3.20;;;1.10;;
18532;SDS011;9396;51.510;11.934;2023-07-29T04:04:38;1.77;;;1.33;;
18532;SDS011;9396;51.510;11.934;2023-07-29T04:07:07;1.30;;;1.20;;
18532;SDS011;9396;51.510;11.934;2023-07-29T04:09:33;1.93;;;1.30;;
18532;SDS011;9396;51.510;11.934;2023-07-29T04:12:00;2.53;;;1.30;;
18532;SDS011;9396;51.510;11.934;2023-07-29T04:14:28;1.60;;;1.10;;
18532;SDS011;9396;51.510;11.934;2023-07-29T04:16:55;1.97;;;1.13;;
18532;SDS011;9396;51.510;11.934;2023-07-29T04:19:21;1.20;;;1.10;;
18532;SDS011;9396;51.510;11.934;2023-07-29T04:21:48;1.63;;;1.03;;
18532;SDS011;9396;51.510;11.934;2023-07-29T04:24:15;2.60;;;1.27;;
18532;SDS011;9396;51.510;11.934;2023-07-29T04:26:42;1.57;;;1.00;;
18532;SDS011;9396;51.510;11.934;2023-07-29T04:29:09;1.17;;;1.07;;
18532;SDS011;9396;51.510;11.934;2023-07-29T04:31:37;1.70;;;1.37;;
18532;SDS011;9396;51.510;11.934;2023-07-29T04:34:04;1.83;;;1.30;;
18532;SDS011;9396;51.510;11.934;2023-07-29T04:36:31;1.63;;;1.30;;
18532;SDS011;9396;51.510;11.934;2023-07-29T04:38:58;1.20;;;1.10;;
18532;SDS011;9396;51.510;11.934;2023-07-29T04:41:24;3.00;;;1.40;;
18532;SDS011;9396;51.510;11.934;2023-07-29T04:43:51;1.57;;;1.33;;
18532;SDS011;9396;51.510;11.934;2023-07-29T04:46:18;1.83;;;1.30;;
18532;SDS011;9396;51.510;11.934;2023-07-29T04:48:46;1.07;;;0.97;;
18532;SDS011;9396;51.510;11.934;2023-07-29T04:51:12;1.50;;;1.10;;
18532;SDS011;9396;51.510;11.934;2023-07-29T04:53:39;1.67;;;1.30;;
18532;SDS011;9396;51.510;11.934;2023-07-29T04:56:06;1.30;;;1.20;;
18532;SDS011;9396;51.510;11.934;2023-07-29T04:58:33;2.37;;;1.40;;
18532;SDS011;9396;51.510;11.934;2023-07-29T05:01:00;1.50;;;1.40;;
18532;SDS011;9396;51.510;11.934;2023-07-29T05:03:27;3.20;;;1.27;;
18532;SDS011;9396;51.510;11.934;2023-07-29T05:05:56;1.67;;;1.20;;
18532;SDS011;9396;51.510;11.934;2023-07-29T05:08:22;3.13;;;1.30;;
18532;SDS011;9396;51.510;11.934;2023-07-29T05:10:49;2.93;;;1.30;;
18532;SDS011;9396;51.510;11.934;2023-07-29T05:13:16;3.10;;;1.93;;
18532;SDS011;9396;51.510;11.934;2023-07-29T05:15:43;1.77;;;1.20;;
18532;SDS011;9396;51.510;11.934;2023-07-29T05:18:10;2.00;;;1.20;;
18532;SDS011;9396;51.510;11.934;2023-07-29T05:20:37;1.73;;;1.07;;
18532;SDS011;9396;51.510;11.934;2023-07-29T05:23:05;3.83;;;1.30;;
18532;SDS011;9396;51.510;11.934;2023-07-29T05:25:32;1.63;;;1.20;;
18532;SDS011;9396;51.510;11.934;2023-07-29T05:27:59;1.63;;;1.30;;
18532;SDS011;9396;51.510;11.934;2023-07-29T05:30:26;2.53;;;1.47;;
18532;SDS011;9396;51.510;11.934;2023-07-29T05:32:56;1.30;;;1.20;;
18532;SDS011;9396;51.510;11.934;2023-07-29T05:35:22;3.03;;;1.30;;
18532;SDS011;9396;51.510;11.934;2023-07-29T05:37:49;1.67;;;1.20;;
18532;SDS011;9396;51.510;11.934;2023-07-29T05:40:17;2.40;;;1.50;;
18532;SDS011;9396;51.510;11.934;2023-07-29T05:42:44;2.57;;;1.40;;
18532;SDS011;9396;51.510;11.934;2023-07-29T05:45:11;1.50;;;1.13;;
18532;SDS011;9396;51.510;11.934;2023-07-29T05:47:37;3.73;;;1.90;;
18532;SDS011;9396;51.510;11.934;2023-07-29T05:50:04;1.57;;;1.30;;
18532;SDS011;9396;51.510;11.934;2023-07-29T05:52:32;1.47;;;1.37;;
18532;SDS011;9396;51.510;11.934;2023-07-29T05:54:58;3.47;;;1.30;;
18532;SDS011;9396;51.510;11.934;2023-07-29T05:57:26;1.20;;;1.10;;
18532;SDS011;9396;51.510;11.934;2023-07-29T05:59:54;1.43;;;1.13;;
18532;SDS011;9396;51.510;11.934;2023-07-29T06:02:20;1.70;;;1.23;;
18532;SDS011;9396;51.510;11.934;2023-07-29T06:04:47;2.87;;;1.20;;
18532;SDS011;9396;51.510;11.934;2023-07-29T06:07:14;2.47;;;1.20;;
18532;SDS011;9396;51.510;11.934;2023-07-29T06:09:40;1.20;;;1.00;;
18532;SDS011;9396;51.510;11.934;2023-07-29T06:12:07;1.40;;;1.20;;
18532;SDS011;9396;51.510;11.934;2023-07-29T06:14:36;3.20;;;1.40;;
18532;SDS011;9396;51.510;11.934;2023-07-29T06:17:03;1.17;;;0.93;;
18532;SDS011;9396;51.510;11.934;2023-07-29T06:19:30;1.27;;;1.00;;
18532;SDS011;9396;51.510;11.934;2023-07-29T06:21:56;0.90;;;0.77;;
18532;SDS011;9396;51.510;11.934;2023-07-29T06:24:23;1.27;;;0.80;;
18532;SDS011;9396;51.510;11.934;2023-07-29T06:26:50;1.60;;;0.90;;
18532;SDS011;9396;51.510;11.934;2023-07-29T06:29:16;1.87;;;1.07;;
18532;SDS011;9396;51.510;11.934;2023-07-29T06:31:44;0.80;;;0.80;;
18532;SDS011;9396;51.510;11.934;2023-07-29T06:34:11;1.10;;;0.80;;
18532;SDS011;9396;51.510;11.934;2023-07-29T06:36:37;2.47;;;1.00;;
18532;SDS011;9396;51.510;11.934;2023-07-29T06:39:04;2.27;;;1.10;;
18532;SDS011;9396;51.510;11.934;2023-07-29T06:41:31;1.47;;;1.07;;
18532;SDS011;9396;51.510;11.934;2023-07-29T06:43:57;1.90;;;1.00;;
18532;SDS011;9396;51.510;11.934;2023-07-29T06:46:24;1.67;;;0.90;;
18532;SDS011;9396;51.510;11.934;2023-07-29T06:48:52;1.13;;;1.00;;
18532;SDS011;9396;51.510;11.934;2023-07-29T06:51:19;1.77;;;0.90;;
18532;SDS011;9396;51.510;11.934;2023-07-29T06:53:45;1.33;;;1.03;;
18532;SDS011;9396;51.510;11.934;2023-07-29T06:56:12;1.13;;;1.03;;
18532;SDS011;9396;51.510;11.934;2023-07-29T06:58:39;3.07;;;1.10;;
18532;SDS011;9396;51.510;11.934;2023-07-29T07:01:06;2.50;;;1.20;;
18532;SDS011;9396;51.510;11.934;2023-07-29T07:03:32;2.47;;;0.90;;
18532;SDS011;9396;51.510;11.934;2023-07-29T07:06:00;2.40;;;1.20;;
18532;SDS011;9396;51.510;11.934;2023-07-29T07:08:28;1.00;;;0.80;;
18532;SDS011;9396;51.510;11.934;2023-07-29T07:10:56;1.17;;;1.07;;
18532;SDS011;9396;51.510;11.934;2023-07-29T07:13:22;1.00;;;0.90;;
18532;SDS011;9396;51.510;11.934;2023-07-29T07:15:49;1.20;;;0.90;;
18532;SDS011;9396;51.510;11.934;2023-07-29T07:18:16;2.87;;;1.00;;
18532;SDS011;9396;51.510;11.934;2023-07-29T07:20:42;1.20;;;1.10;;
18532;SDS011;9396;51.510;11.934;2023-07-29T07:23:11;1.07;;;0.90;;
18532;SDS011;9396;51.510;11.934;2023-07-29T07:25:38;2.50;;;1.20;;
18532;SDS011;9396;51.510;11.934;2023-07-29T07:28:05;1.60;;;1.03;;
18532;SDS011;9396;51.510;11.934;2023-07-29T07:30:31;2.00;;;1.10;;
18532;SDS011;9396;51.510;11.934;2023-07-29T07:32:58;1.00;;;0.97;;
18532;SDS011;9396;51.510;11.934;2023-07-29T07:35:25;1.17;;;1.07;;
18532;SDS011;9396;51.510;11.934;2023-07-29T07:37:51;2.00;;;1.00;;
18532;SDS011;9396;51.510;11.934;2023-07-29T07:40:19;1.87;;;1.30;;
18532;SDS011;9396;51.510;11.934;2023-07-29T07:42:46;1.50;;;1.23;;
18532;SDS011;9396;51.510;11.934;2023-07-29T07:45:12;1.40;;;1.30;;
18532;SDS011;9396;51.510;11.934;2023-07-29T07:47:39;1.40;;;1.13;;
18532;SDS011;9396;51.510;11.934;2023-07-29T07:50:06;1.57;;;1.30;;
18532;SDS011;9396;51.510;11.934;2023-07-29T07:52:33;2.60;;;1.20;;
18532;SDS011;9396;51.510;11.934;2023-07-29T07:55:00;3.83;;;1.30;;
18532;SDS011;9396;51.510;11.934;2023-07-29T07:57:28;2.43;;;1.23;;
18532;SDS011;9396;51.510;11.934;2023-07-29T07:59:54;3.43;;;1.20;;
18532;SDS011;9396;51.510;11.934;2023-07-29T08:02:21;1.10;;;1.00;;
18532;SDS011;9396;51.510;11.934;2023-07-29T08:04:48;1.50;;;1.17;;
18532;SDS011;9396;51.510;11.934;2023-07-29T08:07:14;2.70;;;0.97;;
18532;SDS011;9396;51.510;11.934;2023-07-29T08:09:41;1.87;;;0.60;;
18532;SDS011;9396;51.510;11.934;2023-07-29T08:12:08;1.73;;;0.80;;
18532;SDS011;9396;51.510;11.934;2023-07-29T08:14:36;1.03;;;0.93;;
18532;SDS011;9396;51.510;11.934;2023-07-29T08:17:03;1.27;;;0.83;;
18532;SDS011;9396;51.510;11.934;2023-07-29T08:19:30;1.73;;;1.00;;
18532;SDS011;9396;51.510;11.934;2023-07-29T08:21:56;1.00;;;0.67;;
18532;SDS011;9396;51.510;11.934;2023-07-29T08:24:23;1.03;;;0.83;;
18532;SDS011;9396;51.510;11.934;2023-07-29T08:26:50;1.17;;;1.00;;
18532;SDS011;9396;51.510;11.934;2023-07-29T08:29:16;0.83;;;0.80;;
18532;SDS011;9396;51.510;11.934;2023-07-29T08:31:44;1.30;;;1.20;;
18532;SDS011;9396;51.510;11.934;2023-07-29T08:34:11;1.17;;;1.00;;
18532;SDS011;9396;51.510;11.934;2023-07-29T08:36:38;0.97;;;0.87;;
18532;SDS011;9396;51.510;11.934;2023-07-29T08:39:04;1.57;;;1.00;;
18532;SDS011;9396;51.510;11.934;2023-07-29T08:41:32;1.20;;;1.00;;
18532;SDS011;9396;51.510;11.934;2023-07-29T08:44:06;0.97;;;0.80;;
18532;SDS011;9396;51.510;11.934;2023-07-29T08:46:37;1.10;;;0.77;;
18532;SDS011;9396;51.510;11.934;2023-07-29T08:49:06;1.07;;;0.90;;
18532;SDS011;9396;51.510;11.934;2023-07-29T08:51:33;1.80;;;0.93;;
18532;SDS011;9396;51.510;11.934;2023-07-29T08:54:01;0.80;;;0.67;;
18532;SDS011;9396;51.510;11.934;2023-07-29T08:56:28;0.80;;;0.77;;
18532;SDS011;9396;51.510;11.934;2023-07-29T08:58:55;0.90;;;0.80;;
18532;SDS011;9396;51.510;11.934;2023-07-29T09:01:22;2.47;;;1.07;;
18532;SDS011;9396;51.510;11.934;2023-07-29T09:03:49;1.30;;;1.10;;
18532;SDS011;9396;51.510;11.934;2023-07-29T09:06:17;1.03;;;0.70;;
18532;SDS011;9396;51.510;11.934;2023-07-29T09:08:45;2.37;;;0.73;;
18532;SDS011;9396;51.510;11.934;2023-07-29T09:11:13;1.00;;;0.90;;
18532;SDS011;9396;51.510;11.934;2023-07-29T09:13:42;2.60;;;0.70;;
18532;SDS011;9396;51.510;11.934;2023-07-29T09:16:09;1.17;;;0.90;;
18532;SDS011;9396;51.510;11.934;2023-07-29T09:18:35;3.73;;;1.00;;
18532;SDS011;9396;51.510;11.934;2023-07-29T09:21:02;4.37;;;0.93;;
18532;SDS011;9396;51.510;11.934;2023-07-29T09:23:39;0.63;;;0.63;;
18532;SDS011;9396;51.510;11.934;2023-07-29T09:26:06;0.80;;;0.80;;
18532;SDS011;9396;51.510;11.934;2023-07-29T09:28:33;1.33;;;0.67;;
18532;SDS011;9396;51.510;11.934;2023-07-29T09:31:00;1.00;;;0.70;;
18532;SDS011;9396;51.510;11.934;2023-07-29T09:33:27;1.00;;;0.70;;
18532;SDS011;9396;51.510;11.934;2023-07-29T09:35:54;0.87;;;0.80;;
18532;SDS011;9396;51.510;11.934;2023-07-29T09:38:25;1.10;;;0.80;;
18532;SDS011;9396;51.510;11.934;2023-07-29T09:40:56;0.70;;;0.70;;
18532;SDS011;9396;51.510;11.934;2023-07-29T09:43:25;0.77;;;0.70;;
18532;SDS011;9396;51.510;11.934;2023-07-29T09:45:52;2.03;;;0.73;;
18532;SDS011;9396;51.510;11.934;2023-07-29T09:48:19;2.23;;;0.90;;
18532;SDS011;9396;51.510;11.934;2023-07-29T09:50:49;1.67;;;0.90;;
18532;SDS011;9396;51.510;11.934;2023-07-29T09:53:15;3.27;;;0.83;;
18532;SDS011;9396;51.510;11.934;2023-07-29T09:55:46;0.70;;;0.60;;
18532;SDS011;9396;51.510;11.934;2023-07-29T09:58:15;3.80;;;0.70;;
18532;SDS011;9396;51.510;11.934;2023-07-29T10:00:46;1.20;;;0.70;;
18532;SDS011;9396;51.510;11.934;2023-07-29T10:03:13;0.80;;;0.80;;
18532;SDS011;9396;51.510;11.934;2023-07-29T10:05:41;1.10;;;0.90;;
18532;SDS011;9396;51.510;11.934;2023-07-29T10:08:08;4.60;;;1.00;;
18532;SDS011;9396;51.510;11.934;2023-07-29T10:10:37;1.07;;;0.73;;
18532;SDS011;9396;51.510;11.934;2023-07-29T10:13:03;1.00;;;0.80;;
18532;SDS011;9396;51.510;11.934;2023-07-29T10:15:32;0.70;;;0.70;;
18532;SDS011;9396;51.510;11.934;2023-07-29T10:17:59;2.07;;;0.80;;
18532;SDS011;9396;51.510;11.934;2023-07-29T10:20:28;1.20;;;0.73;;
18532;SDS011;9396;51.510;11.934;2023-07-29T10:22:56;1.60;;;0.93;;
18532;SDS011;9396;51.510;11.934;2023-07-29T10:25:26;1.33;;;0.90;;
18532;SDS011;9396;51.510;11.934;2023-07-29T10:28:00;1.63;;;0.90;;
18532;SDS011;9396;51.510;11.934;2023-07-29T10:30:30;2.63;;;1.00;;
18532;SDS011;9396;51.510;11.934;2023-07-29T10:33:01;1.50;;;0.97;;
18532;SDS011;9396;51.510;11.934;2023-07-29T10:35:29;2.30;;;1.17;;
18532;SDS011;9396;51.510;11.934;2023-07-29T10:37:56;2.10;;;1.10;;
18532;SDS011;9396;51.510;11.934;2023-07-29T10:40:23;1.47;;;1.10;;
18532;SDS011;9396;51.510;11.934;2023-07-29T10:42:59;0.80;;;0.80;;
18532;SDS011;9396;51.510;11.934;2023-07-29T10:45:37;4.30;;;0.90;;
18532;SDS011;9396;51.510;11.934;2023-07-29T10:48:05;2.03;;;1.10;;
18532;SDS011;9396;51.510;11.934;2023-07-29T10:50:33;2.63;;;1.10;;
18532;SDS011;9396;51.510;11.934;2023-07-29T10:53:00;1.60;;;1.20;;
18532;SDS011;9396;51.510;11.934;2023-07-29T10:55:28;2.57;;;1.10;;
18532;SDS011;9396;51.510;11.934;2023-07-29T10:58:05;1.70;;;1.20;;
18532;SDS011;9396;51.510;11.934;2023-07-29T11:00:34;1.33;;;1.00;;
18532;SDS011;9396;51.510;11.934;2023-07-29T11:03:02;3.37;;;1.73;;
18532;SDS011;9396;51.510;11.934;2023-07-29T11:05:44;3.37;;;1.50;;
18532;SDS011;9396;51.510;11.934;2023-07-29T11:08:16;2.90;;;1.80;;
18532;SDS011;9396;51.510;11.934;2023-07-29T11:11:00;2.07;;;1.47;;
18532;SDS011;9396;51.510;11.934;2023-07-29T11:13:29;1.40;;;1.17;;
18532;SDS011;9396;51.510;11.934;2023-07-29T11:15:56;3.23;;;1.40;;
18532;SDS011;9396;51.510;11.934;2023-07-29T11:18:27;1.87;;;1.30;;
18532;SDS011;9396;51.510;11.934;2023-07-29T11:20:55;2.23;;;1.27;;
18532;SDS011;9396;51.510;11.934;2023-07-29T11:23:27;3.10;;;1.20;;
18532;SDS011;9396;51.510;11.934;2023-07-29T11:25:54;3.80;;;1.30;;
18532;SDS011;9396;51.510;11.934;2023-07-29T11:28:21;2.63;;;1.60;;
18532;SDS011;9396;51.510;11.934;2023-07-29T11:30:49;3.40;;;1.40;;
18532;SDS011;9396;51.510;11.934;2023-07-29T11:33:16;2.23;;;1.40;;
18532;SDS011;9396;51.510;11.934;2023-07-29T11:35:45;1.10;;;1.00;;
18532;SDS011;9396;51.510;11.934;2023-07-29T11:38:14;1.50;;;1.20;;
18532;SDS011;9396;51.510;11.934;2023-07-29T11:40:41;1.53;;;1.13;;
18532;SDS011;9396;51.510;11.934;2023-07-29T11:43:08;2.90;;;1.30;;
18532;SDS011;9396;51.510;11.934;2023-07-29T11:45:35;5.43;;;1.07;;
18532;SDS011;9396;51.510;11.934;2023-07-29T11:48:02;1.90;;;1.40;;
18532;SDS011;9396;51.510;11.934;2023-07-29T11:50:28;2.30;;;1.27;;
18532;SDS011;9396;51.510;11.934;2023-07-29T11:52:56;2.27;;;1.30;;
18532;SDS011;9396;51.510;11.934;2023-07-29T11:55:24;1.90;;;1.10;;
18532;SDS011;9396;51.510;11.934;2023-07-29T11:57:51;1.70;;;1.10;;
18532;SDS011;9396;51.510;11.934;2023-07-29T12:00:18;1.13;;;1.03;;
18532;SDS011;9396;51.510;11.934;2023-07-29T12:02:46;3.80;;;1.30;;
18532;SDS011;9396;51.510;11.934;2023-07-29T12:05:15;2.83;;;1.30;;
18532;SDS011;9396;51.510;11.934;2023-07-29T12:07:43;1.47;;;1.17;;
18532;SDS011;9396;51.510;11.934;2023-07-29T12:10:12;1.83;;;1.30;;
18532;SDS011;9396;51.510;11.934;2023-07-29T12:12:43;2.47;;;1.10;;
18532;SDS011;9396;51.510;11.934;2023-07-29T12:15:11;1.43;;;1.00;;
18532;SDS011;9396;51.510;11.934;2023-07-29T12:17:39;3.00;;;1.20;;
18532;SDS011;9396;51.510;11.934;2023-07-29T12:20:08;1.67;;;1.20;;
18532;SDS011;9396;51.510;11.934;2023-07-29T12:22:35;1.60;;;1.03;;
18532;SDS011;9396;51.510;11.934;2023-07-29T12:25:02;1.63;;;0.97;;
18532;SDS011;9396;51.510;11.934;2023-07-29T12:27:31;2.23;;;1.10;;
18532;SDS011;9396;51.510;11.934;2023-07-29T12:30:00;1.40;;;1.00;;
18532;SDS011;9396;51.510;11.934;2023-07-29T12:32:29;1.47;;;1.00;;
18532;SDS011;9396;51.510;11.934;2023-07-29T12:34:55;2.80;;;1.60;;
18532;SDS011;9396;51.510;11.934;2023-07-29T12:37:30;1.40;;;1.10;;
18532;SDS011;9396;51.510;11.934;2023-07-29T12:39:57;1.00;;;0.90;;
18532;SDS011;9396;51.510;11.934;2023-07-29T12:42:24;1.57;;;1.10;;
18532;SDS011;9396;51.510;11.934;2023-07-29T12:44:52;2.53;;;1.10;;
18532;SDS011;9396;51.510;11.934;2023-07-29T12:47:19;3.20;;;1.20;;
18532;SDS011;9396;51.510;11.934;2023-07-29T12:49:46;2.00;;;0.90;;
18532;SDS011;9396;51.510;11.934;2023-07-29T12:52:12;1.20;;;1.10;;
18532;SDS011;9396;51.510;11.934;2023-07-29T12:54:39;1.50;;;1.10;;
18532;SDS011;9396;51.510;11.934;2023-07-29T12:57:09;1.17;;;1.07;;
18532;SDS011;9396;51.510;11.934;2023-07-29T12:59:35;4.23;;;1.30;;
18532;SDS011;9396;51.510;11.934;2023-07-29T13:02:04;1.60;;;1.20;;
18532;SDS011;9396;51.510;11.934;2023-07-29T13:04:30;1.43;;;0.97;;
18532;SDS011;9396;51.510;11.934;2023-07-29T13:06:57;1.60;;;1.10;;
18532;SDS011;9396;51.510;11.934;2023-07-29T13:09:24;1.43;;;1.20;;
18532;SDS011;9396;51.510;11.934;2023-07-29T13:11:51;1.40;;;0.90;;
18532;SDS011;9396;51.510;11.934;2023-07-29T13:14:18;1.03;;;0.93;;
18532;SDS011;9396;51.510;11.934;2023-07-29T13:16:44;1.33;;;1.10;;
18532;SDS011;9396;51.510;11.934;2023-07-29T13:19:12;1.40;;;1.00;;
18532;SDS011;9396;51.510;11.934;2023-07-29T13:21:39;1.90;;;1.07;;
18532;SDS011;9396;51.510;11.934;2023-07-29T13:24:06;4.43;;;1.17;;
18532;SDS011;9396;51.510;11.934;2023-07-29T13:26:32;2.60;;;1.10;;
18532;SDS011;9396;51.510;11.934;2023-07-29T13:28:59;1.67;;;1.20;;
18532;SDS011;9396;51.510;11.934;2023-07-29T13:31:25;1.20;;;1.10;;
18532;SDS011;9396;51.510;11.934;2023-07-29T13:33:52;1.53;;;1.13;;
18532;SDS011;9396;51.510;11.934;2023-07-29T13:36:20;3.50;;;1.20;;
18532;SDS011;9396;51.510;11.934;2023-07-29T13:38:47;1.00;;;0.90;;
18532;SDS011;9396;51.510;11.934;2023-07-29T13:41:13;1.10;;;1.00;;
18532;SDS011;9396;51.510;11.934;2023-07-29T13:43:40;1.10;;;1.00;;
18532;SDS011;9396;51.510;11.934;2023-07-29T13:46:07;2.07;;;1.00;;
18532;SDS011;9396;51.510;11.934;2023-07-29T13:48:33;1.37;;;1.10;;
18532;SDS011;9396;51.510;11.934;2023-07-29T13:51:00;1.53;;;1.27;;
18532;SDS011;9396;51.510;11.934;2023-07-29T13:53:29;2.00;;;1.40;;
18532;SDS011;9396;51.510;11.934;2023-07-29T13:55:55;1.10;;;1.00;;
18532;SDS011;9396;51.510;11.934;2023-07-29T13:58:22;1.00;;;0.90;;
18532;SDS011;9396;51.510;11.934;2023-07-29T14:00:49;1.83;;;1.20;;
18532;SDS011;9396;51.510;11.934;2023-07-29T14:03:15;1.13;;;0.97;;
18532;SDS011;9396;51.510;11.934;2023-07-29T14:05:42;1.30;;;1.17;;
18532;SDS011;9396;51.510;11.934;2023-07-29T14:08:08;3.20;;;1.23;;
18532;SDS011;9396;51.510;11.934;2023-07-29T14:10:37;1.67;;;1.30;;
18532;SDS011;9396;51.510;11.934;2023-07-29T14:13:03;1.60;;;1.13;;
18532;SDS011;9396;51.510;11.934;2023-07-29T14:15:30;3.13;;;1.30;;
18532;SDS011;9396;51.510;11.934;2023-07-29T14:17:57;1.80;;;1.20;;
18532;SDS011;9396;51.510;11.934;2023-07-29T14:20:24;6.13;;;1.90;;
18532;SDS011;9396;51.510;11.934;2023-07-29T14:22:51;7.23;;;2.67;;
18532;SDS011;9396;51.510;11.934;2023-07-29T14:25:17;3.23;;;2.20;;
18532;SDS011;9396;51.510;11.934;2023-07-29T14:27:46;3.40;;;1.90;;
18532;SDS011;9396;51.510;11.934;2023-07-29T14:30:12;3.57;;;1.87;;
18532;SDS011;9396;51.510;11.934;2023-07-29T14:32:39;2.23;;;1.53;;
18532;SDS011;9396;51.510;11.934;2023-07-29T14:35:06;3.63;;;2.10;;
18532;SDS011;9396;51.510;11.934;2023-07-29T14:37:33;7.07;;;1.93;;
18532;SDS011;9396;51.510;11.934;2023-07-29T14:40:00;3.10;;;2.40;;
18532;SDS011;9396;51.510;11.934;2023-07-29T14:42:27;4.07;;;2.03;;
18532;SDS011;9396;51.510;11.934;2023-07-29T14:44:56;5.80;;;1.93;;
18532;SDS011;9396;51.510;11.934;2023-07-29T14:47:22;5.53;;;2.20;;
18532;SDS011;9396;51.510;11.934;2023-07-29T14:49:49;5.37;;;2.13;;